Pilot Station, Alaska
Current Conditions -  °F | °C
As of 10:56 PM on Thursday 23 Oct 2014 (Local Time) from PASM Reporting Station
Clear Clear  
Wind Chill: -5°   Ceiling: Unl
Heat Index: -1°   Visibility: 10mi
Dew Point: -3°   Wind: 7mph
Humidity: 86%   Direction: 290°WNW
Pressure: 29.71"   Gusts: NA
Location:  61.94°N, 162.88°W
Report Text: PASM 240656Z AUTO 29006KT 10SM CLR M01/M03 A2971 RMK AO1
Loading
Personal Weather Stations






























Interactive Weather Map
Tropical Storm Tracking
New forecast layout! Learn more

10-Day Weather Forecast

Advertisements
Track Severe Weather on mobile